sensor_id;sensor_type;location;lat;lon;timestamp;temperature;humidity
7317;DHT22;3699;51.462;6.696;2023-12-20T00:00:22;9.00;99.90
7317;DHT22;3699;51.462;6.696;2023-12-20T00:02:48;9.00;99.90
7317;DHT22;3699;51.462;6.696;2023-12-20T00:05:15;8.90;99.90
7317;DHT22;3699;51.462;6.696;2023-12-20T00:07:43;8.90;99.90
7317;DHT22;3699;51.462;6.696;2023-12-20T00:10:09;8.90;99.90
7317;DHT22;3699;51.462;6.696;2023-12-20T00:12:39;8.70;99.90
7317;DHT22;3699;51.462;6.696;2023-12-20T00:15:07;8.70;99.90
7317;DHT22;3699;51.462;6.696;2023-12-20T00:17:34;8.60;99.90
7317;DHT22;3699;51.462;6.696;2023-12-20T00:20:01;8.60;99.90
7317;DHT22;3699;51.462;6.696;2023-12-20T00:22:28;8.50;99.90
7317;DHT22;3699;51.462;6.696;2023-12-20T00:24:54;8.50;99.90
7317;DHT22;3699;51.462;6.696;2023-12-20T00:27:21;8.40;99.90
7317;DHT22;3699;51.462;6.696;2023-12-20T00:29:50;8.40;99.90
7317;DHT22;3699;51.462;6.696;2023-12-20T00:32:16;8.40;99.90
7317;DHT22;3699;51.462;6.696;2023-12-20T00:34:43;8.40;99.90
7317;DHT22;3699;51.462;6.696;2023-12-20T00:37:10;8.30;99.90
7317;DHT22;3699;51.462;6.696;2023-12-20T00:39:37;8.40;99.90
7317;DHT22;3699;51.462;6.696;2023-12-20T00:42:04;8.40;99.90
7317;DHT22;3699;51.462;6.696;2023-12-20T00:44:31;8.30;99.90
7317;DHT22;3699;51.462;6.696;2023-12-20T00:46:59;8.30;99.90
7317;DHT22;3699;51.462;6.696;2023-12-20T00:49:26;8.40;99.90
7317;DHT22;3699;51.462;6.696;2023-12-20T00:51:53;8.40;99.90
7317;DHT22;3699;51.462;6.696;2023-12-20T00:54:20;8.40;99.90
7317;DHT22;3699;51.462;6.696;2023-12-20T00:56:46;8.30;99.90
7317;DHT22;3699;51.462;6.696;2023-12-20T00:59:13;8.30;99.90
7317;DHT22;3699;51.462;6.696;2023-12-20T01:01:40;8.30;99.90
7317;DHT22;3699;51.462;6.696;2023-12-20T01:04:08;8.30;99.90
7317;DHT22;3699;51.462;6.696;2023-12-20T01:06:35;8.30;99.90
7317;DHT22;3699;51.462;6.696;2023-12-20T01:09:02;8.30;99.90
7317;DHT22;3699;51.462;6.696;2023-12-20T01:11:29;8.30;99.90
7317;DHT22;3699;51.462;6.696;2023-12-20T01:13:56;8.40;99.90
7317;DHT22;3699;51.462;6.696;2023-12-20T01:16:22;8.40;99.90
7317;DHT22;3699;51.462;6.696;2023-12-20T01:18:49;8.40;99.90
7317;DHT22;3699;51.462;6.696;2023-12-20T01:21:17;8.10;99.90
7317;DHT22;3699;51.462;6.696;2023-12-20T01:23:44;8.40;99.90
7317;DHT22;3699;51.462;6.696;2023-12-20T01:26:11;8.30;99.90
7317;DHT22;3699;51.462;6.696;2023-12-20T01:28:38;8.40;99.90
7317;DHT22;3699;51.462;6.696;2023-12-20T01:31:04;8.30;99.90
7317;DHT22;3699;51.462;6.696;2023-12-20T01:33:31;8.20;99.90
7317;DHT22;3699;51.462;6.696;2023-12-20T01:35:58;8.30;99.90
7317;DHT22;3699;51.462;6.696;2023-12-20T01:38:26;8.30;99.90
7317;DHT22;3699;51.462;6.696;2023-12-20T01:40:53;8.20;99.90
7317;DHT22;3699;51.462;6.696;2023-12-20T01:43:19;8.10;99.90
7317;DHT22;3699;51.462;6.696;2023-12-20T01:45:47;8.00;99.90
7317;DHT22;3699;51.462;6.696;2023-12-20T01:48:15;7.90;99.90
7317;DHT22;3699;51.462;6.696;2023-12-20T01:50:43;7.90;99.90
7317;DHT22;3699;51.462;6.696;2023-12-20T01:53:12;7.40;99.90
7317;DHT22;3699;51.462;6.696;2023-12-20T01:55:40;7.80;99.90
7317;DHT22;3699;51.462;6.696;2023-12-20T01:58:09;7.70;99.90
7317;DHT22;3699;51.462;6.696;2023-12-20T02:00:37;7.50;99.90
7317;DHT22;3699;51.462;6.696;2023-12-20T02:03:04;7.60;99.90
7317;DHT22;3699;51.462;6.696;2023-12-20T02:05:32;7.60;99.90
7317;DHT22;3699;51.462;6.696;2023-12-20T02:07:59;7.60;99.90
7317;DHT22;3699;51.462;6.696;2023-12-20T02:10:26;7.50;99.90
7317;DHT22;3699;51.462;6.696;2023-12-20T02:12:57;7.50;99.90
7317;DHT22;3699;51.462;6.696;2023-12-20T02:15:24;7.50;99.90
7317;DHT22;3699;51.462;6.696;2023-12-20T02:17:51;7.40;99.90
7317;DHT22;3699;51.462;6.696;2023-12-20T02:20:18;7.40;99.90
7317;DHT22;3699;51.462;6.696;2023-12-20T02:22:46;7.40;99.90
7317;DHT22;3699;51.462;6.696;2023-12-20T02:25:13;7.40;99.90
7317;DHT22;3699;51.462;6.696;2023-12-20T02:27:40;7.30;99.90
7317;DHT22;3699;51.462;6.696;2023-12-20T02:30:07;7.30;99.90
7317;DHT22;3699;51.462;6.696;2023-12-20T02:32:34;7.40;99.90
7317;DHT22;3699;51.462;6.696;2023-12-20T02:35:00;7.20;99.90
7317;DHT22;3699;51.462;6.696;2023-12-20T02:37:27;7.20;99.90
7317;DHT22;3699;51.462;6.696;2023-12-20T02:39:55;7.20;99.90
7317;DHT22;3699;51.462;6.696;2023-12-20T02:42:22;7.10;99.90
7317;DHT22;3699;51.462;6.696;2023-12-20T02:44:48;7.10;99.90
7317;DHT22;3699;51.462;6.696;2023-12-20T02:47:15;7.00;99.90
7317;DHT22;3699;51.462;6.696;2023-12-20T02:49:42;7.00;99.90
7317;DHT22;3699;51.462;6.696;2023-12-20T02:52:09;6.90;99.90
7317;DHT22;3699;51.462;6.696;2023-12-20T02:54:35;6.90;99.90
7317;DHT22;3699;51.462;6.696;2023-12-20T02:57:04;6.90;99.90
7317;DHT22;3699;51.462;6.696;2023-12-20T02:59:30;6.90;99.90
7317;DHT22;3699;51.462;6.696;2023-12-20T03:01:57;6.80;99.90
7317;DHT22;3699;51.462;6.696;2023-12-20T03:04:24;6.80;99.90
7317;DHT22;3699;51.462;6.696;2023-12-20T03:06:51;6.80;99.90
7317;DHT22;3699;51.462;6.696;2023-12-20T03:09:17;6.80;99.90
7317;DHT22;3699;51.462;6.696;2023-12-20T03:11:44;6.80;99.90
7317;DHT22;3699;51.462;6.696;2023-12-20T03:14:12;6.90;99.90
7317;DHT22;3699;51.462;6.696;2023-12-20T03:16:39;6.90;99.90
7317;DHT22;3699;51.462;6.696;2023-12-20T03:19:05;6.90;99.90
7317;DHT22;3699;51.462;6.696;2023-12-20T03:21:32;7.00;99.90
7317;DHT22;3699;51.462;6.696;2023-12-20T03:23:59;6.90;99.90
7317;DHT22;3699;51.462;6.696;2023-12-20T03:26:25;6.90;99.90
7317;DHT22;3699;51.462;6.696;2023-12-20T03:28:52;7.00;99.90
7317;DHT22;3699;51.462;6.696;2023-12-20T03:31:20;7.00;99.90
7317;DHT22;3699;51.462;6.696;2023-12-20T03:33:47;7.00;99.90
7317;DHT22;3699;51.462;6.696;2023-12-20T03:36:14;7.00;99.90
7317;DHT22;3699;51.462;6.696;2023-12-20T03:38:40;7.00;99.90
7317;DHT22;3699;51.462;6.696;2023-12-20T03:41:07;6.90;99.90
7317;DHT22;3699;51.462;6.696;2023-12-20T03:43:34;6.90;99.90
7317;DHT22;3699;51.462;6.696;2023-12-20T03:46:01;6.90;99.90
7317;DHT22;3699;51.462;6.696;2023-12-20T03:48:30;6.80;99.90
7317;DHT22;3699;51.462;6.696;2023-12-20T03:50:57;6.80;99.90
7317;DHT22;3699;51.462;6.696;2023-12-20T03:53:24;6.80;99.90
7317;DHT22;3699;51.462;6.696;2023-12-20T03:55:50;6.70;99.90
7317;DHT22;3699;51.462;6.696;2023-12-20T03:58:17;6.70;99.90
7317;DHT22;3699;51.462;6.696;2023-12-20T04:00:44;6.70;99.90
7317;DHT22;3699;51.462;6.696;2023-12-20T04:03:10;6.70;99.90
7317;DHT22;3699;51.462;6.696;2023-12-20T04:05:40;6.60;99.90
7317;DHT22;3699;51.462;6.696;2023-12-20T04:08:07;6.60;99.90
7317;DHT22;3699;51.462;6.696;2023-12-20T04:10:34;6.60;99.90
7317;DHT22;3699;51.462;6.696;2023-12-20T04:13:03;6.60;99.90
7317;DHT22;3699;51.462;6.696;2023-12-20T04:15:29;6.60;99.90
7317;DHT22;3699;51.462;6.696;2023-12-20T04:17:56;6.60;99.90
7317;DHT22;3699;51.462;6.696;2023-12-20T04:20:23;6.60;99.90
7317;DHT22;3699;51.462;6.696;2023-12-20T04:22:51;8.70;99.90
7317;DHT22;3699;51.462;6.696;2023-12-20T04:25:17;6.60;99.90
7317;DHT22;3699;51.462;6.696;2023-12-20T04:27:44;6.60;99.90
7317;DHT22;3699;51.462;6.696;2023-12-20T04:30:11;6.60;99.90
7317;DHT22;3699;51.462;6.696;2023-12-20T04:32:38;6.60;99.90
7317;DHT22;3699;51.462;6.696;2023-12-20T04:35:05;6.80;99.90
7317;DHT22;3699;51.462;6.696;2023-12-20T04:37:34;6.70;99.90
7317;DHT22;3699;51.462;6.696;2023-12-20T04:40:02;6.70;99.90
7317;DHT22;3699;51.462;6.696;2023-12-20T04:42:30;6.70;99.90
7317;DHT22;3699;51.462;6.696;2023-12-20T04:44:57;6.80;99.90
7317;DHT22;3699;51.462;6.696;2023-12-20T04:47:24;6.70;99.90
7317;DHT22;3699;51.462;6.696;2023-12-20T04:49:51;6.80;99.90
7317;DHT22;3699;51.462;6.696;2023-12-20T04:52:17;6.80;99.90
7317;DHT22;3699;51.462;6.696;2023-12-20T04:54:44;6.80;99.90
7317;DHT22;3699;51.462;6.696;2023-12-20T04:57:12;6.80;99.90
7317;DHT22;3699;51.462;6.696;2023-12-20T04:59:39;6.80;99.90
7317;DHT22;3699;51.462;6.696;2023-12-20T05:02:07;6.60;99.90
7317;DHT22;3699;51.462;6.696;2023-12-20T05:04:34;6.70;99.90
7317;DHT22;3699;51.462;6.696;2023-12-20T05:07:01;6.60;99.90
7317;DHT22;3699;51.462;6.696;2023-12-20T05:09:30;6.60;99.90
7317;DHT22;3699;51.462;6.696;2023-12-20T05:11:56;6.50;99.90
7317;DHT22;3699;51.462;6.696;2023-12-20T05:14:25;6.60;99.90
7317;DHT22;3699;51.462;6.696;2023-12-20T05:16:52;6.50;99.90
7317;DHT22;3699;51.462;6.696;2023-12-20T05:19:18;6.50;99.90
7317;DHT22;3699;51.462;6.696;2023-12-20T05:21:45;6.50;99.90
7317;DHT22;3699;51.462;6.696;2023-12-20T05:24:12;6.50;99.90
7317;DHT22;3699;51.462;6.696;2023-12-20T05:26:39;6.50;99.90
7317;DHT22;3699;51.462;6.696;2023-12-20T05:29:05;6.60;99.90
7317;DHT22;3699;51.462;6.696;2023-12-20T05:31:33;6.60;99.90
7317;DHT22;3699;51.462;6.696;2023-12-20T05:34:00;7.10;99.90
7317;DHT22;3699;51.462;6.696;2023-12-20T05:36:27;6.60;99.90
7317;DHT22;3699;51.462;6.696;2023-12-20T05:38:54;6.70;99.90
7317;DHT22;3699;51.462;6.696;2023-12-20T05:41:20;6.70;99.90
7317;DHT22;3699;51.462;6.696;2023-12-20T05:43:48;6.70;99.90
7317;DHT22;3699;51.462;6.696;2023-12-20T05:46:15;6.70;99.90
7317;DHT22;3699;51.462;6.696;2023-12-20T05:48:43;6.70;99.90
7317;DHT22;3699;51.462;6.696;2023-12-20T05:51:11;6.80;99.90
7317;DHT22;3699;51.462;6.696;2023-12-20T05:53:38;6.70;99.90
7317;DHT22;3699;51.462;6.696;2023-12-20T05:56:05;6.80;99.90
7317;DHT22;3699;51.462;6.696;2023-12-20T05:58:32;6.80;99.90
7317;DHT22;3699;51.462;6.696;2023-12-20T06:00:59;6.80;99.90
7317;DHT22;3699;51.462;6.696;2023-12-20T06:03:25;6.80;99.90
7317;DHT22;3699;51.462;6.696;2023-12-20T06:05:53;6.90;99.90
7317;DHT22;3699;51.462;6.696;2023-12-20T06:08:20;6.80;99.90
7317;DHT22;3699;51.462;6.696;2023-12-20T06:10:47;6.90;99.90
7317;DHT22;3699;51.462;6.696;2023-12-20T06:13:14;6.90;99.90
7317;DHT22;3699;51.462;6.696;2023-12-20T06:15:40;7.00;99.90
7317;DHT22;3699;51.462;6.696;2023-12-20T06:18:07;6.90;99.90
7317;DHT22;3699;51.462;6.696;2023-12-20T06:20:36;6.90;99.90
7317;DHT22;3699;51.462;6.696;2023-12-20T06:23:04;6.90;99.90
7317;DHT22;3699;51.462;6.696;2023-12-20T06:25:30;6.90;99.90
7317;DHT22;3699;51.462;6.696;2023-12-20T06:27:57;7.00;99.90
7317;DHT22;3699;51.462;6.696;2023-12-20T06:30:24;7.00;99.90
7317;DHT22;3699;51.462;6.696;2023-12-20T06:32:53;7.00;99.90
7317;DHT22;3699;51.462;6.696;2023-12-20T06:35:20;7.00;99.90
7317;DHT22;3699;51.462;6.696;2023-12-20T06:37:46;7.00;99.90
7317;DHT22;3699;51.462;6.696;2023-12-20T06:40:14;7.00;99.90
7317;DHT22;3699;51.462;6.696;2023-12-20T06:42:41;7.00;99.90
7317;DHT22;3699;51.462;6.696;2023-12-20T06:45:09;7.10;99.90
7317;DHT22;3699;51.462;6.696;2023-12-20T06:47:36;7.10;99.90
7317;DHT22;3699;51.462;6.696;2023-12-20T06:50:03;7.10;99.90
7317;DHT22;3699;51.462;6.696;2023-12-20T06:52:30;7.10;99.90
7317;DHT22;3699;51.462;6.696;2023-12-20T06:54:57;7.20;99.90
7317;DHT22;3699;51.462;6.696;2023-12-20T06:57:25;7.30;99.90
7317;DHT22;3699;51.462;6.696;2023-12-20T06:59:52;7.20;99.90
7317;DHT22;3699;51.462;6.696;2023-12-20T07:02:18;7.20;99.90
7317;DHT22;3699;51.462;6.696;2023-12-20T07:04:46;7.30;99.90
7317;DHT22;3699;51.462;6.696;2023-12-20T07:07:13;7.30;99.90
7317;DHT22;3699;51.462;6.696;2023-12-20T07:09:39;7.60;99.90
7317;DHT22;3699;51.462;6.696;2023-12-20T07:12:08;7.30;99.90
7317;DHT22;3699;51.462;6.696;2023-12-20T07:14:36;7.30;99.90
7317;DHT22;3699;51.462;6.696;2023-12-20T07:17:03;7.40;99.90
7317;DHT22;3699;51.462;6.696;2023-12-20T07:19:30;7.40;99.90
7317;DHT22;3699;51.462;6.696;2023-12-20T07:21:57;7.30;99.90
7317;DHT22;3699;51.462;6.696;2023-12-20T07:24:24;7.40;99.90
7317;DHT22;3699;51.462;6.696;2023-12-20T07:26:50;7.30;99.90
7317;DHT22;3699;51.462;6.696;2023-12-20T07:29:17;7.40;99.90
7317;DHT22;3699;51.462;6.696;2023-12-20T07:31:45;7.40;99.90
7317;DHT22;3699;51.462;6.696;2023-12-20T07:34:12;7.40;99.90
7317;DHT22;3699;51.462;6.696;2023-12-20T07:36:39;7.40;99.90
7317;DHT22;3699;51.462;6.696;2023-12-20T07:39:05;7.40;99.90
7317;DHT22;3699;51.462;6.696;2023-12-20T07:41:33;7.40;99.90
7317;DHT22;3699;51.462;6.696;2023-12-20T07:43:59;7.50;99.90
7317;DHT22;3699;51.462;6.696;2023-12-20T07:46:26;7.50;99.90
7317;DHT22;3699;51.462;6.696;2023-12-20T07:48:54;7.50;99.90
7317;DHT22;3699;51.462;6.696;2023-12-20T07:51:21;7.50;99.90
7317;DHT22;3699;51.462;6.696;2023-12-20T07:53:48;7.50;99.90
7317;DHT22;3699;51.462;6.696;2023-12-20T07:56:15;7.60;99.90
7317;DHT22;3699;51.462;6.696;2023-12-20T07:58:42;7.60;99.90
7317;DHT22;3699;51.462;6.696;2023-12-20T08:01:09;7.60;99.90
7317;DHT22;3699;51.462;6.696;2023-12-20T08:03:36;7.60;99.90
7317;DHT22;3699;51.462;6.696;2023-12-20T08:06:04;7.60;99.90
7317;DHT22;3699;51.462;6.696;2023-12-20T08:08:31;7.60;99.90
7317;DHT22;3699;51.462;6.696;2023-12-20T08:10:58;7.60;99.90
7317;DHT22;3699;51.462;6.696;2023-12-20T08:13:25;7.60;99.90
7317;DHT22;3699;51.462;6.696;2023-12-20T08:15:53;7.60;99.90
7317;DHT22;3699;51.462;6.696;2023-12-20T08:18:19;7.60;99.90
7317;DHT22;3699;51.462;6.696;2023-12-20T08:20:46;7.30;99.90
7317;DHT22;3699;51.462;6.696;2023-12-20T08:23:15;7.70;99.90
7317;DHT22;3699;51.462;6.696;2023-12-20T08:25:42;7.70;99.90
7317;DHT22;3699;51.462;6.696;2023-12-20T08:28:08;7.60;99.90
7317;DHT22;3699;51.462;6.696;2023-12-20T08:30:35;7.70;99.90
7317;DHT22;3699;51.462;6.696;2023-12-20T08:33:02;7.70;99.90
7317;DHT22;3699;51.462;6.696;2023-12-20T08:35:29;7.70;99.90
7317;DHT22;3699;51.462;6.696;2023-12-20T08:37:56;7.70;99.90
7317;DHT22;3699;51.462;6.696;2023-12-20T08:40:24;7.70;99.90
7317;DHT22;3699;51.462;6.696;2023-12-20T08:42:51;7.70;99.90
7317;DHT22;3699;51.462;6.696;2023-12-20T08:45:17;7.70;99.90
7317;DHT22;3699;51.462;6.696;2023-12-20T08:47:44;7.70;99.90
7317;DHT22;3699;51.462;6.696;2023-12-20T08:50:11;7.80;99.90
7317;DHT22;3699;51.462;6.696;2023-12-20T08:52:38;7.80;99.90
7317;DHT22;3699;51.462;6.696;2023-12-20T08:55:06;7.80;99.90
7317;DHT22;3699;51.462;6.696;2023-12-20T08:57:34;7.80;99.90
7317;DHT22;3699;51.462;6.696;2023-12-20T09:00:01;7.80;99.90
7317;DHT22;3699;51.462;6.696;2023-12-20T09:02:28;7.90;99.90
7317;DHT22;3699;51.462;6.696;2023-12-20T09:04:55;7.90;99.90
7317;DHT22;3699;51.462;6.696;2023-12-20T09:07:22;7.90;99.90
7317;DHT22;3699;51.462;6.696;2023-12-20T09:09:49;7.90;99.90
7317;DHT22;3699;51.462;6.696;2023-12-20T09:12:17;7.90;99.90
7317;DHT22;3699;51.462;6.696;2023-12-20T09:14:46;7.90;99.90
7317;DHT22;3699;51.462;6.696;2023-12-20T09:17:13;8.00;99.90
7317;DHT22;3699;51.462;6.696;2023-12-20T09:19:40;7.90;99.90
7317;DHT22;3699;51.462;6.696;2023-12-20T09:22:07;7.80;99.90
7317;DHT22;3699;51.462;6.696;2023-12-20T09:24:33;7.80;99.90
7317;DHT22;3699;51.462;6.696;2023-12-20T09:27:00;7.80;99.90
7317;DHT22;3699;51.462;6.696;2023-12-20T09:29:28;7.80;99.90
7317;DHT22;3699;51.462;6.696;2023-12-20T09:31:56;7.80;99.90
7317;DHT22;3699;51.462;6.696;2023-12-20T09:34:23;7.80;99.90
7317;DHT22;3699;51.462;6.696;2023-12-20T09:36:51;7.90;99.90
7317;DHT22;3699;51.462;6.696;2023-12-20T09:39:19;7.90;99.90
7317;DHT22;3699;51.462;6.696;2023-12-20T09:41:55;7.90;99.90
7317;DHT22;3699;51.462;6.696;2023-12-20T09:44:26;7.90;99.90
7317;DHT22;3699;51.462;6.696;2023-12-20T09:46:53;7.90;99.90
7317;DHT22;3699;51.462;6.696;2023-12-20T09:49:22;7.90;99.90
7317;DHT22;3699;51.462;6.696;2023-12-20T09:51:50;7.90;99.90
7317;DHT22;3699;51.462;6.696;2023-12-20T09:54:18;7.90;99.90
7317;DHT22;3699;51.462;6.696;2023-12-20T09:56:45;8.00;99.90
7317;DHT22;3699;51.462;6.696;2023-12-20T09:59:12;7.90;99.90
7317;DHT22;3699;51.462;6.696;2023-12-20T10:01:39;8.00;99.90
7317;DHT22;3699;51.462;6.696;2023-12-20T10:04:08;8.00;99.90
7317;DHT22;3699;51.462;6.696;2023-12-20T10:06:39;8.00;99.90
7317;DHT22;3699;51.462;6.696;2023-12-20T10:09:06;8.00;99.90
7317;DHT22;3699;51.462;6.696;2023-12-20T10:11:35;8.00;99.90
7317;DHT22;3699;51.462;6.696;2023-12-20T10:14:03;8.10;99.90
7317;DHT22;3699;51.462;6.696;2023-12-20T10:16:30;8.20;99.90
7317;DHT22;3699;51.462;6.696;2023-12-20T10:18:58;8.20;99.90
7317;DHT22;3699;51.462;6.696;2023-12-20T10:21:25;8.30;99.90
7317;DHT22;3699;51.462;6.696;2023-12-20T10:23:55;8.40;99.90
7317;DHT22;3699;51.462;6.696;2023-12-20T10:26:23;8.40;99.90
7317;DHT22;3699;51.462;6.696;2023-12-20T10:28:50;8.50;99.90
7317;DHT22;3699;51.462;6.696;2023-12-20T10:31:29;8.40;99.90
7317;DHT22;3699;51.462;6.696;2023-12-20T10:33:57;8.50;99.90
7317;DHT22;3699;51.462;6.696;2023-12-20T10:36:25;8.60;99.90
7317;DHT22;3699;51.462;6.696;2023-12-20T10:38:54;8.50;99.90
7317;DHT22;3699;51.462;6.696;2023-12-20T10:41:25;8.60;99.90
7317;DHT22;3699;51.462;6.696;2023-12-20T10:43:54;8.60;99.90
7317;DHT22;3699;51.462;6.696;2023-12-20T10:46:21;8.60;99.90
7317;DHT22;3699;51.462;6.696;2023-12-20T10:48:51;8.60;99.90
7317;DHT22;3699;51.462;6.696;2023-12-20T10:51:20;8.50;99.90
7317;DHT22;3699;51.462;6.696;2023-12-20T10:53:48;8.60;99.90
7317;DHT22;3699;51.462;6.696;2023-12-20T10:56:17;8.50;99.90
7317;DHT22;3699;51.462;6.696;2023-12-20T10:58:45;8.80;99.90
7317;DHT22;3699;51.462;6.696;2023-12-20T11:01:13;8.70;99.90
7317;DHT22;3699;51.462;6.696;2023-12-20T11:03:44;8.70;99.90
7317;DHT22;3699;51.462;6.696;2023-12-20T11:06:19;8.70;99.90
7317;DHT22;3699;51.462;6.696;2023-12-20T11:08:53;8.70;99.90
7317;DHT22;3699;51.462;6.696;2023-12-20T11:11:29;8.70;99.90
7317;DHT22;3699;51.462;6.696;2023-12-20T11:14:00;8.70;99.90
7317;DHT22;3699;51.462;6.696;2023-12-20T11:16:27;8.70;99.90
7317;DHT22;3699;51.462;6.696;2023-12-20T11:18:54;8.70;99.90
7317;DHT22;3699;51.462;6.696;2023-12-20T11:21:21;8.70;99.90
7317;DHT22;3699;51.462;6.696;2023-12-20T11:23:48;8.70;99.90
7317;DHT22;3699;51.462;6.696;2023-12-20T11:26:16;8.80;99.90
7317;DHT22;3699;51.462;6.696;2023-12-20T11:28:44;8.80;99.90
7317;DHT22;3699;51.462;6.696;2023-12-20T11:31:14;8.80;99.90
7317;DHT22;3699;51.462;6.696;2023-12-20T11:33:42;8.90;99.90
7317;DHT22;3699;51.462;6.696;2023-12-20T11:36:13;8.90;99.90
7317;DHT22;3699;51.462;6.696;2023-12-20T11:38:54;8.90;99.90
7317;DHT22;3699;51.462;6.696;2023-12-20T11:41:22;8.90;99.90
7317;DHT22;3699;51.462;6.696;2023-12-20T11:43:53;9.00;99.90
7317;DHT22;3699;51.462;6.696;2023-12-20T11:46:20;9.10;99.90
7317;DHT22;3699;51.462;6.696;2023-12-20T11:48:48;8.90;99.90
7317;DHT22;3699;51.462;6.696;2023-12-20T11:51:15;9.00;99.90
7317;DHT22;3699;51.462;6.696;2023-12-20T11:53:42;8.90;99.90
7317;DHT22;3699;51.462;6.696;2023-12-20T11:56:09;8.90;99.90
7317;DHT22;3699;51.462;6.696;2023-12-20T11:58:36;8.80;99.90
7317;DHT22;3699;51.462;6.696;2023-12-20T12:01:04;8.90;99.90
7317;DHT22;3699;51.462;6.696;2023-12-20T12:03:32;8.90;99.90
7317;DHT22;3699;51.462;6.696;2023-12-20T12:05:59;8.90;99.90
7317;DHT22;3699;51.462;6.696;2023-12-20T12:08:27;9.00;99.90
7317;DHT22;3699;51.462;6.696;2023-12-20T12:10:54;9.00;99.90
7317;DHT22;3699;51.462;6.696;2023-12-20T12:13:21;9.10;99.90
7317;DHT22;3699;51.462;6.696;2023-12-20T12:15:48;9.20;99.90
7317;DHT22;3699;51.462;6.696;2023-12-20T12:18:17;9.10;99.90
7317;DHT22;3699;51.462;6.696;2023-12-20T12:20:44;9.10;99.90
7317;DHT22;3699;51.462;6.696;2023-12-20T12:23:11;9.20;99.90
7317;DHT22;3699;51.462;6.696;2023-12-20T12:25:38;9.10;99.90
7317;DHT22;3699;51.462;6.696;2023-12-20T12:28:05;9.20;99.90
7317;DHT22;3699;51.462;6.696;2023-12-20T12:30:32;9.20;99.90
7317;DHT22;3699;51.462;6.696;2023-12-20T12:32:59;9.20;99.90
7317;DHT22;3699;51.462;6.696;2023-12-20T12:35:27;9.20;99.90
7317;DHT22;3699;51.462;6.696;2023-12-20T12:37:54;9.20;99.90
7317;DHT22;3699;51.462;6.696;2023-12-20T12:40:21;9.20;99.90
7317;DHT22;3699;51.462;6.696;2023-12-20T12:42:47;9.20;99.90
7317;DHT22;3699;51.462;6.696;2023-12-20T12:45:14;9.20;99.90
7317;DHT22;3699;51.462;6.696;2023-12-20T12:47:41;9.20;99.90
7317;DHT22;3699;51.462;6.696;2023-12-20T12:50:08;9.10;99.90
7317;DHT22;3699;51.462;6.696;2023-12-20T12:52:36;9.10;99.90
7317;DHT22;3699;51.462;6.696;2023-12-20T12:55:04;9.00;99.90
7317;DHT22;3699;51.462;6.696;2023-12-20T12:57:31;8.90;99.90
7317;DHT22;3699;51.462;6.696;2023-12-20T12:59:59;9.20;99.90
7317;DHT22;3699;51.462;6.696;2023-12-20T13:02:25;8.90;99.90
7317;DHT22;3699;51.462;6.696;2023-12-20T13:04:52;8.80;99.90
7317;DHT22;3699;51.462;6.696;2023-12-20T13:07:19;8.80;99.90
7317;DHT22;3699;51.462;6.696;2023-12-20T13:09:47;8.80;99.90
7317;DHT22;3699;51.462;6.696;2023-12-20T13:12:14;8.70;99.90
7317;DHT22;3699;51.462;6.696;2023-12-20T13:14:40;8.70;99.90
7317;DHT22;3699;51.462;6.696;2023-12-20T13:17:07;9.80;99.90
7317;DHT22;3699;51.462;6.696;2023-12-20T13:19:34;8.70;99.90
7317;DHT22;3699;51.462;6.696;2023-12-20T13:22:01;8.80;99.90
7317;DHT22;3699;51.462;6.696;2023-12-20T13:24:27;8.70;99.90
7317;DHT22;3699;51.462;6.696;2023-12-20T13:26:56;8.70;99.90
7317;DHT22;3699;51.462;6.696;2023-12-20T13:29:23;8.60;99.90
7317;DHT22;3699;51.462;6.696;2023-12-20T13:31:52;8.70;99.90
7317;DHT22;3699;51.462;6.696;2023-12-20T13:34:19;8.70;99.90
7317;DHT22;3699;51.462;6.696;2023-12-20T13:36:46;8.70;99.90
7317;DHT22;3699;51.462;6.696;2023-12-20T13:39:16;8.70;99.90
7317;DHT22;3699;51.462;6.696;2023-12-20T13:41:43;8.60;99.90
7317;DHT22;3699;51.462;6.696;2023-12-20T13:44:11;8.60;99.90
7317;DHT22;3699;51.462;6.696;2023-12-20T13:46:39;8.60;99.90
7317;DHT22;3699;51.462;6.696;2023-12-20T13:49:06;8.70;99.90
7317;DHT22;3699;51.462;6.696;2023-12-20T13:51:33;8.60;99.90
7317;DHT22;3699;51.462;6.696;2023-12-20T13:54:00;8.60;99.90
7317;DHT22;3699;51.462;6.696;2023-12-20T13:56:26;8.60;99.90
7317;DHT22;3699;51.462;6.696;2023-12-20T13:58:53;8.60;99.90
7317;DHT22;3699;51.462;6.696;2023-12-20T14:01:22;8.60;99.90
7317;DHT22;3699;51.462;6.696;2023-12-20T14:03:49;8.50;99.90
7317;DHT22;3699;51.462;6.696;2023-12-20T14:06:16;8.50;99.90
7317;DHT22;3699;51.462;6.696;2023-12-20T14:08:43;8.50;99.90
7317;DHT22;3699;51.462;6.696;2023-12-20T14:11:10;8.50;99.90
7317;DHT22;3699;51.462;6.696;2023-12-20T14:13:37;8.50;99.90
7317;DHT22;3699;51.462;6.696;2023-12-20T14:16:05;8.50;99.90
7317;DHT22;3699;51.462;6.696;2023-12-20T14:18:33;8.50;99.90
7317;DHT22;3699;51.462;6.696;2023-12-20T14:20:59;8.50;99.90
7317;DHT22;3699;51.462;6.696;2023-12-20T14:23:26;8.50;99.90
7317;DHT22;3699;51.462;6.696;2023-12-20T14:25:53;8.50;99.90
7317;DHT22;3699;51.462;6.696;2023-12-20T14:28:21;8.50;99.90
7317;DHT22;3699;51.462;6.696;2023-12-20T14:30:48;8.50;99.90
7317;DHT22;3699;51.462;6.696;2023-12-20T14:33:15;8.50;99.90
7317;DHT22;3699;51.462;6.696;2023-12-20T14:35:43;8.50;99.90
7317;DHT22;3699;51.462;6.696;2023-12-20T14:38:10;8.50;99.90
7317;DHT22;3699;51.462;6.696;2023-12-20T14:40:38;8.50;99.90
7317;DHT22;3699;51.462;6.696;2023-12-20T14:43:06;8.50;99.90
7317;DHT22;3699;51.462;6.696;2023-12-20T14:45:32;8.50;99.90
7317;DHT22;3699;51.462;6.696;2023-12-20T14:47:59;8.50;99.90
7317;DHT22;3699;51.462;6.696;2023-12-20T14:50:26;8.60;99.90
7317;DHT22;3699;51.462;6.696;2023-12-20T14:52:54;8.60;99.90
7317;DHT22;3699;51.462;6.696;2023-12-20T14:55:21;8.60;99.90
7317;DHT22;3699;51.462;6.696;2023-12-20T14:57:48;8.50;99.90
7317;DHT22;3699;51.462;6.696;2023-12-20T15:00:15;8.50;99.90
7317;DHT22;3699;51.462;6.696;2023-12-20T15:02:42;8.50;99.90
7317;DHT22;3699;51.462;6.696;2023-12-20T15:05:09;8.50;99.90
7317;DHT22;3699;51.462;6.696;2023-12-20T15:07:36;8.60;99.90
7317;DHT22;3699;51.462;6.696;2023-12-20T15:10:05;8.60;99.90
7317;DHT22;3699;51.462;6.696;2023-12-20T15:12:32;8.60;99.90
7317;DHT22;3699;51.462;6.696;2023-12-20T15:15:00;8.60;99.90
7317;DHT22;3699;51.462;6.696;2023-12-20T15:17:26;8.60;99.90
7317;DHT22;3699;51.462;6.696;2023-12-20T15:19:53;8.60;99.90
7317;DHT22;3699;51.462;6.696;2023-12-20T15:22:21;8.70;99.90
7317;DHT22;3699;51.462;6.696;2023-12-20T15:24:47;8.70;99.90
7317;DHT22;3699;51.462;6.696;2023-12-20T15:27:17;8.70;99.90
7317;DHT22;3699;51.462;6.696;2023-12-20T15:29:44;8.60;99.90
7317;DHT22;3699;51.462;6.696;2023-12-20T15:32:11;8.70;99.90
7317;DHT22;3699;51.462;6.696;2023-12-20T15:34:38;8.70;99.90
7317;DHT22;3699;51.462;6.696;2023-12-20T15:37:04;8.70;99.90
7317;DHT22;3699;51.462;6.696;2023-12-20T15:39:31;8.70;99.90
7317;DHT22;3699;51.462;6.696;2023-12-20T15:41:58;8.70;99.90
7317;DHT22;3699;51.462;6.696;2023-12-20T15:44:26;8.70;99.90
7317;DHT22;3699;51.462;6.696;2023-12-20T15:46:53;8.70;99.90
7317;DHT22;3699;51.462;6.696;2023-12-20T15:49:19;8.70;99.90
7317;DHT22;3699;51.462;6.696;2023-12-20T15:51:46;8.70;99.90
7317;DHT22;3699;51.462;6.696;2023-12-20T15:54:13;8.70;99.90
7317;DHT22;3699;51.462;6.696;2023-12-20T15:56:40;8.70;99.90
7317;DHT22;3699;51.462;6.696;2023-12-20T15:59:10;8.70;99.90
7317;DHT22;3699;51.462;6.696;2023-12-20T16:01:38;8.70;99.90
7317;DHT22;3699;51.462;6.696;2023-12-20T16:04:06;8.60;99.90
7317;DHT22;3699;51.462;6.696;2023-12-20T16:06:33;8.60;99.90
7317;DHT22;3699;51.462;6.696;2023-12-20T16:09:01;8.60;99.90
7317;DHT22;3699;51.462;6.696;2023-12-20T16:11:28;8.60;99.90
7317;DHT22;3699;51.462;6.696;2023-12-20T16:13:55;8.60;99.90
7317;DHT22;3699;51.462;6.696;2023-12-20T16:16:22;8.60;99.90